createdAt,value
2019-02-06T00:01:14.822Z,22.11
2019-02-06T00:04:30.245Z,22.00
2019-02-06T00:06:59.607Z,22.00
2019-02-06T00:09:29.694Z,21.99
2019-02-06T00:11:57.821Z,22.00
2019-02-06T00:28:43.915Z,21.98
2019-02-06T00:31:14.904Z,21.82
2019-02-06T00:34:12.785Z,22.05
2019-02-06T00:36:42.842Z,21.99
2019-02-06T00:39:11.717Z,21.90
2019-02-06T00:42:08.369Z,21.82
2019-02-06T00:44:36.707Z,21.82
2019-02-06T00:47:07.730Z,21.90
2019-02-06T00:49:36.962Z,21.85
2019-02-06T00:52:07.296Z,21.86
2019-02-06T00:54:37.303Z,21.73
2019-02-06T00:57:04.708Z,21.73
2019-02-06T00:59:35.651Z,21.89
2019-02-06T01:02:06.458Z,21.83
2019-02-06T01:04:35.710Z,21.94
2019-02-06T01:07:05.124Z,21.86
2019-02-06T01:09:36.110Z,21.84
2019-02-06T01:12:05.911Z,21.72
2019-02-06T01:14:35.695Z,21.85
2019-02-06T01:17:05.410Z,21.82
2019-02-06T01:19:36.557Z,21.82
2019-02-06T01:22:08.773Z,21.86
2019-02-06T01:24:38.837Z,21.86
2019-02-06T01:27:09.839Z,21.73
2019-02-06T01:29:39.113Z,21.83
2019-02-06T01:32:07.861Z,21.79
2019-02-06T01:34:37.383Z,21.76
2019-02-06T01:37:06.696Z,21.76
2019-02-06T01:39:36.046Z,21.63
2019-02-06T01:42:04.387Z,21.63
2019-02-06T01:44:34.532Z,21.74
2019-02-06T01:47:07.017Z,21.75
2019-02-06T01:49:36.815Z,21.72
2019-02-06T01:52:05.961Z,21.72
2019-02-06T01:54:35.787Z,21.68
2019-02-06T01:57:07.404Z,21.68
2019-02-06T01:59:36.838Z,21.64
2019-02-06T02:02:05.677Z,21.65
2019-02-06T02:04:36.373Z,21.65
2019-02-06T02:07:07.738Z,21.73
2019-02-06T02:09:38.368Z,21.73
2019-02-06T02:12:29.871Z,21.62
2019-02-06T02:14:59.723Z,21.68
2019-02-06T02:17:32.431Z,21.68
2019-02-06T02:20:03.723Z,21.65
2019-02-06T02:22:35.752Z,21.61
2019-02-06T02:25:06.821Z,21.61
2019-02-06T02:27:36.911Z,21.53
2019-02-06T02:30:07.842Z,21.60
2019-02-06T02:32:37.729Z,21.60
2019-02-06T02:35:08.743Z,21.52
2019-02-06T02:37:38.384Z,21.55
2019-02-06T02:40:09.290Z,21.55
2019-02-06T02:42:39.164Z,21.59
2019-02-06T02:45:11.753Z,21.60
2019-02-06T02:47:40.821Z,21.60
2019-02-06T02:50:11.075Z,21.58
2019-02-06T02:52:41.700Z,21.53
2019-02-06T02:55:10.836Z,21.53
2019-02-06T02:57:40.648Z,21.52
2019-02-06T03:00:14.979Z,21.52
2019-02-06T03:03:13.399Z,21.52
2019-02-06T03:05:42.215Z,21.54
2019-02-06T03:08:10.762Z,21.54
2019-02-06T03:10:41.715Z,21.57
2019-02-06T03:13:12.272Z,21.54
2019-02-06T03:15:40.895Z,21.54
2019-02-06T03:18:10.721Z,21.49
2019-02-06T03:20:39.683Z,21.55
2019-02-06T03:23:09.594Z,21.56
2019-02-06T03:25:38.963Z,21.50
2019-02-06T03:29:41.653Z,21.58
2019-02-06T03:32:11.699Z,21.45
2019-02-06T03:34:42.169Z,21.45
2019-02-06T03:39:11.768Z,21.54
2019-02-06T03:41:40.011Z,21.39
2019-02-06T03:44:09.657Z,21.39
2019-02-06T03:46:39.877Z,21.44
2019-02-06T03:49:09.826Z,21.44
2019-02-06T03:51:38.648Z,21.44
2019-02-06T03:54:10.896Z,20.98
2019-02-06T03:56:39.343Z,21.42
2019-02-06T03:59:10.263Z,21.31
2019-02-06T04:01:39.888Z,21.31
2019-02-06T04:04:10.663Z,21.47
2019-02-06T04:06:38.964Z,21.47
2019-02-06T04:09:07.738Z,21.48
2019-02-06T04:11:36.822Z,21.44
2019-02-06T04:14:07.788Z,21.44
2019-02-06T04:16:36.931Z,21.51
2019-02-06T04:19:06.269Z,21.33
2019-02-06T04:21:36.813Z,21.38
2019-02-06T04:24:08.065Z,21.48
2019-02-06T04:26:38.750Z,21.42
2019-02-06T04:29:09.884Z,21.42
2019-02-06T04:31:40.718Z,21.25
2019-02-06T04:34:10.706Z,21.25
2019-02-06T04:36:41.214Z,21.20
2019-02-06T04:39:10.842Z,21.39
2019-02-06T04:41:40.095Z,21.44
2019-02-06T04:44:09.807Z,21.44
2019-02-06T04:46:41.728Z,21.43
2019-02-06T04:49:11.818Z,21.41
2019-02-06T04:51:41.961Z,21.49
2019-02-06T04:54:13.071Z,21.37
2019-02-06T04:56:44.882Z,21.37
2019-02-06T04:59:16.023Z,21.23
2019-02-06T05:01:48.853Z,21.23
2019-02-06T05:05:22.966Z,21.47
2019-02-06T05:07:50.752Z,21.32
2019-02-06T05:10:22.859Z,21.32
2019-02-06T05:12:52.261Z,21.42
2019-02-06T05:15:22.072Z,21.38
2019-02-06T05:17:50.955Z,21.36
2019-02-06T05:20:25.804Z,21.30
2019-02-06T05:22:54.126Z,21.30
2019-02-06T05:25:24.470Z,21.24
2019-02-06T05:27:53.278Z,21.25
2019-02-06T05:30:23.267Z,21.25
2019-02-06T05:32:52.670Z,21.36
2019-02-06T05:35:21.661Z,21.36
2019-02-06T05:37:51.682Z,21.46
2019-02-06T05:40:20.958Z,21.45
2019-02-06T05:44:05.651Z,21.40
2019-02-06T05:58:22.425Z,21.42
2019-02-06T06:00:51.776Z,21.46
2019-02-06T06:03:20.970Z,21.52
2019-02-06T06:05:49.451Z,21.49
2019-02-06T06:08:19.698Z,21.49
2019-02-06T06:10:49.895Z,21.49
2019-02-06T06:13:20.894Z,21.46
2019-02-06T06:15:50.658Z,21.49
2019-02-06T06:18:21.987Z,21.49
2019-02-06T06:20:54.185Z,21.42
2019-02-06T06:23:24.583Z,21.42
2019-02-06T06:28:26.054Z,21.54
2019-02-06T06:30:56.059Z,21.38
2019-02-06T06:33:25.745Z,21.38
2019-02-06T06:35:56.705Z,21.49
2019-02-06T06:38:25.133Z,21.54
2019-02-06T06:40:54.900Z,21.48
2019-02-06T06:43:24.990Z,21.55
2019-02-06T06:45:54.788Z,21.48
2019-02-06T06:48:25.751Z,21.48
2019-02-06T06:50:54.853Z,21.40
2019-02-06T06:53:25.728Z,21.49
2019-02-06T06:58:01.705Z,21.57
2019-02-06T07:00:31.740Z,21.53
2019-02-06T07:03:01.918Z,21.52
2019-02-06T07:07:19.860Z,21.61
2019-02-06T07:09:51.169Z,21.61
2019-02-06T07:12:20.355Z,21.55
2019-02-06T07:14:49.832Z,21.57
2019-02-06T07:17:20.093Z,21.63
2019-02-06T07:19:51.154Z,21.39
2019-02-06T07:22:23.273Z,21.39
2019-02-06T07:24:54.938Z,21.63
2019-02-06T07:27:24.741Z,21.38
2019-02-06T07:29:56.019Z,21.42
2019-02-06T07:32:26.764Z,21.40
2019-02-06T07:34:58.662Z,21.40
2019-02-06T07:37:29.329Z,21.41
2019-02-06T07:39:57.711Z,21.38
2019-02-06T07:42:28.199Z,21.44
2019-02-06T07:44:59.047Z,21.44
2019-02-06T07:47:28.938Z,21.39
2019-02-06T07:49:57.287Z,21.42
2019-02-06T07:52:27.796Z,21.51
2019-02-06T07:54:57.377Z,21.57
2019-02-06T07:57:27.660Z,21.66
2019-02-06T07:59:56.152Z,21.66
2019-02-06T08:02:25.725Z,21.67
2019-02-06T08:04:54.809Z,21.67
2019-02-06T08:07:23.554Z,21.68
2019-02-06T08:09:54.174Z,21.80
2019-02-06T08:12:23.297Z,21.83
2019-02-06T08:14:54.682Z,21.83
2019-02-06T08:17:23.726Z,21.89
2019-02-06T08:19:54.618Z,21.93
2019-02-06T08:22:23.390Z,21.93
2019-02-06T08:24:53.785Z,21.85
2019-02-06T08:27:26.291Z,21.85
2019-02-06T08:29:55.385Z,21.92
2019-02-06T08:32:25.690Z,21.92
2019-02-06T08:34:55.778Z,22.00
2019-02-06T08:37:25.482Z,22.00
2019-02-06T08:39:54.798Z,22.01
2019-02-06T08:42:24.723Z,22.04
2019-02-06T08:44:55.378Z,22.13
2019-02-06T08:47:27.711Z,22.18
2019-02-06T08:49:57.114Z,22.18
2019-02-06T08:55:18.870Z,22.32
2019-02-06T08:57:47.712Z,22.25
2019-02-06T09:00:23.691Z,22.25
2019-02-06T09:03:01.893Z,22.28
2019-02-06T09:05:36.420Z,22.35
2019-02-06T09:09:18.905Z,22.40
2019-02-06T09:11:47.379Z,22.44
2019-02-06T09:14:17.939Z,22.44
2019-02-06T09:16:47.028Z,22.52
2019-02-06T09:19:18.750Z,22.43
2019-02-06T09:21:48.935Z,22.43
2019-02-06T09:24:19.795Z,22.50
2019-02-06T09:26:49.774Z,22.50
2019-02-06T09:29:19.856Z,22.42
2019-02-06T09:31:48.436Z,22.57
2019-02-06T09:34:19.447Z,22.57
2019-02-06T09:36:49.147Z,22.57
2019-02-06T09:39:17.728Z,22.56
2019-02-06T09:41:46.529Z,22.50
2019-02-06T09:44:16.684Z,22.61
2019-02-06T09:46:46.680Z,22.69
2019-02-06T09:49:15.338Z,22.71
2019-02-06T09:51:45.781Z,22.58
2019-02-06T09:54:15.821Z,22.73
2019-02-06T09:56:45.641Z,22.78
2019-02-06T09:59:14.400Z,22.78
2019-02-06T10:01:45.365Z,22.71
2019-02-06T10:04:15.409Z,22.71
2019-02-06T10:06:44.355Z,22.73
2019-02-06T10:09:22.523Z,22.87
2019-02-06T10:14:13.750Z,22.71
2019-02-06T10:16:44.894Z,22.71
2019-02-06T10:19:15.935Z,22.67
2019-02-06T10:21:45.404Z,22.77
2019-02-06T10:24:14.290Z,22.85
2019-02-06T10:26:43.043Z,22.85
2019-02-06T10:29:12.235Z,22.76
2019-02-06T10:34:11.923Z,22.81
2019-02-06T10:36:41.427Z,22.89
2019-02-06T10:39:11.604Z,22.89
2019-02-06T10:41:42.984Z,22.80
2019-02-06T10:44:12.639Z,22.91
2019-02-06T10:46:43.765Z,22.91
2019-02-06T10:49:13.784Z,22.87
2019-02-06T10:51:43.362Z,22.87
2019-02-06T10:54:14.714Z,22.90
2019-02-06T10:56:44.740Z,22.95
2019-02-06T10:59:14.057Z,23.04
2019-02-06T11:01:43.815Z,22.95
2019-02-06T11:04:13.819Z,22.87
2019-02-06T11:06:43.435Z,22.87
2019-02-06T11:09:13.818Z,22.90
2019-02-06T11:11:44.798Z,22.92
2019-02-06T11:14:16.893Z,22.93
2019-02-06T11:16:46.739Z,22.93
2019-02-06T11:19:16.842Z,23.03
2019-02-06T11:21:47.393Z,22.88
2019-02-06T11:24:16.691Z,22.88
2019-02-06T11:26:45.370Z,22.96
2019-02-06T11:29:15.763Z,22.97
2019-02-06T11:31:44.979Z,22.96
2019-02-06T11:34:15.919Z,23.11
2019-02-06T11:36:46.403Z,23.01
2019-02-06T11:39:21.794Z,23.00
2019-02-06T11:41:51.022Z,23.00
2019-02-06T11:44:20.032Z,23.08
2019-02-06T11:46:52.669Z,22.98
2019-02-06T11:49:27.825Z,23.21
2019-02-06T11:51:57.056Z,23.21
2019-02-06T11:54:28.019Z,23.21
2019-02-06T11:56:59.712Z,23.30
2019-02-06T11:59:30.707Z,23.30
2019-02-06T12:01:58.823Z,23.28
2019-02-06T12:04:27.154Z,23.25
2019-02-06T12:06:58.862Z,23.25
2019-02-06T12:09:27.923Z,23.28
2019-02-06T12:11:58.793Z,23.36
2019-02-06T12:14:29.848Z,23.36
2019-02-06T12:17:00.714Z,23.39
2019-02-06T12:19:30.721Z,23.39
2019-02-06T12:21:59.794Z,23.40
2019-02-06T12:24:30.353Z,23.41
2019-02-06T12:26:59.743Z,23.39
2019-02-06T12:29:29.809Z,23.43
2019-02-06T12:31:58.639Z,23.40
2019-02-06T12:34:28.399Z,23.40
2019-02-06T12:36:58.646Z,23.40
2019-02-06T12:39:28.581Z,23.34
2019-02-06T12:41:58.868Z,23.31
2019-02-06T12:44:30.411Z,23.31
2019-02-06T12:47:00.706Z,23.34
2019-02-06T12:49:29.362Z,23.49
2019-02-06T12:51:58.791Z,23.46
2019-02-06T12:54:30.566Z,23.46
2019-02-06T12:57:01.037Z,23.52
2019-02-06T13:01:13.249Z,23.53
2019-02-06T13:03:42.785Z,23.41
2019-02-06T13:06:13.068Z,23.41
2019-02-06T13:08:42.780Z,23.46
2019-02-06T13:11:14.691Z,23.51
2019-02-06T13:13:45.316Z,23.43
2019-02-06T13:16:16.496Z,23.52
2019-02-06T13:18:44.993Z,23.52
2019-02-06T13:21:14.849Z,23.57
2019-02-06T13:23:43.704Z,23.53
2019-02-06T13:26:12.769Z,23.53
2019-02-06T13:28:41.832Z,23.53
2019-02-06T13:31:12.793Z,23.53
2019-02-06T13:33:41.769Z,23.53
2019-02-06T13:36:12.720Z,23.57
2019-02-06T13:38:41.041Z,23.58
2019-02-06T13:41:12.588Z,23.55
2019-02-06T13:43:44.352Z,23.59
2019-02-06T13:46:14.807Z,23.59
2019-02-06T13:48:46.113Z,23.59
2019-02-06T13:51:19.626Z,23.59
2019-02-06T13:53:49.922Z,23.59
2019-02-06T13:56:21.129Z,23.62
2019-02-06T13:58:52.921Z,23.47
2019-02-06T14:01:25.865Z,23.56
2019-02-06T14:03:56.640Z,23.50
2019-02-06T14:06:28.618Z,23.58
2019-02-06T14:08:58.605Z,23.58
2019-02-06T14:11:29.131Z,23.64
2019-02-06T14:14:00.001Z,23.64
2019-02-06T14:16:29.812Z,23.58
2019-02-06T14:18:59.763Z,23.71
2019-02-06T14:21:30.469Z,23.55
2019-02-06T14:24:50.682Z,23.55
2019-02-06T14:28:16.485Z,23.70
2019-02-06T14:31:34.742Z,23.70
2019-02-06T14:34:57.828Z,23.70
2019-02-06T14:38:34.912Z,23.68
2019-02-06T14:41:45.837Z,23.62
2019-02-06T14:45:07.896Z,23.61
2019-02-06T14:48:29.800Z,23.61
2019-02-06T14:52:23.359Z,23.67
2019-02-06T14:55:19.777Z,23.50
2019-02-06T14:58:36.878Z,23.50
2019-02-06T15:02:00.974Z,23.53
2019-02-06T15:05:48.852Z,23.69
2019-02-06T15:09:21.954Z,23.62
2019-02-06T15:12:47.797Z,23.48
2019-02-06T15:15:44.880Z,23.46
2019-02-06T15:19:06.882Z,23.52
2019-02-06T15:22:40.700Z,23.41
2019-02-06T15:25:21.970Z,23.41
2019-02-06T15:28:56.940Z,23.44
2019-02-06T15:32:37.346Z,23.47
2019-02-06T15:36:23.798Z,23.47
2019-02-06T15:39:34.653Z,23.43
2019-02-06T15:42:49.844Z,23.34
2019-02-06T15:46:11.946Z,23.30
2019-02-06T15:49:24.675Z,23.05
2019-02-06T15:51:54.042Z,23.05
2019-02-06T15:55:20.606Z,23.19
2019-02-06T15:58:51.818Z,23.19
2019-02-06T16:02:29.352Z,23.13
2019-02-06T16:06:03.928Z,23.18
2019-02-06T16:09:26.912Z,23.18
2019-02-06T16:13:11.057Z,23.07
2019-02-06T16:16:42.859Z,22.97
2019-02-06T16:19:46.039Z,22.92
2019-02-06T16:22:27.561Z,22.84
2019-02-06T16:26:06.182Z,22.92
2019-02-06T16:29:02.974Z,22.92
2019-02-06T16:31:45.766Z,22.96
2019-02-06T16:35:04.776Z,22.96
2019-02-06T16:38:26.377Z,22.98
2019-02-06T16:41:35.824Z,22.85
2019-02-06T16:44:42.174Z,22.87
2019-02-06T16:48:17.967Z,22.87
2019-02-06T16:51:32.032Z,22.95
2019-02-06T16:55:07.780Z,22.86
2019-02-06T16:58:09.353Z,22.85
2019-02-06T17:01:11.720Z,22.85
2019-02-06T17:04:32.867Z,22.92
2019-02-06T17:07:25.099Z,22.82
2019-02-06T17:10:46.780Z,22.82
2019-02-06T17:13:48.749Z,22.83
2019-02-06T17:16:58.779Z,22.78
2019-02-06T17:20:35.504Z,22.78
2019-02-06T17:23:39.365Z,22.70
2019-02-06T17:26:35.136Z,22.76
2019-02-06T17:29:56.763Z,22.76
2019-02-06T17:33:01.138Z,22.83
2019-02-06T17:36:03.787Z,22.79
2019-02-06T17:39:37.738Z,22.74
2019-02-06T17:42:18.744Z,22.70
2019-02-06T17:45:27.785Z,22.67
2019-02-06T17:48:58.812Z,22.67
2019-02-06T17:52:19.786Z,22.64
2019-02-06T17:55:16.363Z,22.69
2019-02-06T17:57:47.947Z,22.64
2019-02-06T18:01:03.821Z,22.58
2019-02-06T18:03:46.703Z,22.47
2019-02-06T18:06:17.780Z,22.73
2019-02-06T18:08:56.300Z,22.82
2019-02-06T18:11:21.410Z,22.90
2019-02-06T18:13:54.652Z,22.90
2019-02-06T18:16:26.689Z,22.88
2019-02-06T18:18:58.348Z,22.84
2019-02-06T18:21:29.673Z,22.78
2019-02-06T18:25:42.792Z,22.79
2019-02-06T18:28:12.960Z,22.64
2019-02-06T18:30:42.368Z,22.64
2019-02-06T18:33:09.970Z,22.74
2019-02-06T18:35:41.312Z,22.73
2019-02-06T18:38:11.761Z,22.70
2019-02-06T18:40:40.322Z,22.60
2019-02-06T18:43:10.593Z,22.60
2019-02-06T18:45:41.036Z,22.66
2019-02-06T18:48:11.737Z,22.69
2019-02-06T18:50:40.997Z,22.69
2019-02-06T18:53:10.004Z,22.63
2019-02-06T18:55:39.124Z,22.72
2019-02-06T18:58:08.863Z,22.72
2019-02-06T19:00:37.997Z,22.63
2019-02-06T19:03:12.706Z,22.63
2019-02-06T19:05:41.665Z,22.62
2019-02-06T19:08:11.721Z,22.55
2019-02-06T19:10:40.627Z,22.55
2019-02-06T19:13:13.044Z,22.56
2019-02-06T19:15:42.899Z,22.57
2019-02-06T19:18:13.350Z,22.42
2019-02-06T19:20:42.638Z,22.42
2019-02-06T19:23:32.625Z,22.52
2019-02-06T19:26:02.650Z,22.52
2019-02-06T19:28:33.671Z,22.45
2019-02-06T19:31:02.964Z,22.58
2019-02-06T19:35:44.180Z,22.69
2019-02-06T19:38:12.753Z,22.60
2019-02-06T19:40:43.317Z,22.63
2019-02-06T19:43:12.059Z,22.62
2019-02-06T19:45:41.999Z,22.46
2019-02-06T19:48:16.291Z,22.46
2019-02-06T19:50:43.021Z,22.55
2019-02-06T19:53:11.738Z,22.56
2019-02-06T19:55:42.753Z,22.60
2019-02-06T19:58:13.792Z,22.51
2019-02-06T20:00:43.717Z,22.59
2019-02-06T20:03:13.658Z,22.59
2019-02-06T20:08:03.730Z,22.57
2019-02-06T20:10:37.056Z,22.57
2019-02-06T20:13:11.362Z,22.48
2019-02-06T20:15:36.875Z,22.58
2019-02-06T20:18:07.387Z,22.53
2019-02-06T20:20:36.393Z,22.53
2019-02-06T20:23:05.994Z,22.49
2019-02-06T20:25:36.038Z,22.49
2019-02-06T20:28:07.761Z,22.51
2019-02-06T20:30:39.048Z,22.50
2019-02-06T20:33:09.876Z,22.50
2019-02-06T20:35:38.402Z,22.46
2019-02-06T20:38:07.971Z,22.57
2019-02-06T20:40:39.446Z,22.42
2019-02-06T20:43:08.847Z,22.42
2019-02-06T20:45:39.718Z,22.51
2019-02-06T20:48:08.830Z,22.44
2019-02-06T20:50:39.810Z,22.44
2019-02-06T20:53:09.733Z,22.53
2019-02-06T20:55:39.364Z,22.56
2019-02-06T20:58:08.723Z,22.53
2019-02-06T21:00:39.394Z,22.53
2019-02-06T21:03:09.660Z,22.49
2019-02-06T21:05:39.655Z,22.49
2019-02-06T21:08:09.699Z,22.52
2019-02-06T21:10:40.471Z,22.40
2019-02-06T21:13:10.792Z,22.40
2019-02-06T21:15:42.083Z,22.59
2019-02-06T21:18:12.369Z,22.52
2019-02-06T21:22:20.806Z,22.35
2019-02-06T21:24:49.753Z,22.35
2019-02-06T21:27:21.714Z,22.46
2019-02-06T21:29:51.748Z,22.47
2019-02-06T21:32:21.763Z,22.47
2019-02-06T21:34:50.815Z,22.59
2019-02-06T21:37:20.728Z,22.55
2019-02-06T21:39:48.788Z,22.55
2019-02-06T21:42:18.408Z,22.50
2019-02-06T21:44:50.829Z,22.52
2019-02-06T21:47:21.804Z,22.47
2019-02-06T21:49:53.898Z,22.48
2019-02-06T21:52:23.682Z,22.43
2019-02-06T21:54:54.788Z,22.49
2019-02-06T21:57:22.887Z,22.41
2019-02-06T21:59:51.913Z,22.49
2019-02-06T22:02:22.819Z,22.41
2019-02-06T22:04:57.032Z,22.41
2019-02-06T22:07:27.505Z,22.40
2019-02-06T22:09:56.799Z,22.41
2019-02-06T22:12:26.842Z,22.41
2019-02-06T22:14:55.807Z,22.26
2019-02-06T22:17:25.412Z,22.44
2019-02-06T22:19:53.924Z,22.42
2019-02-06T22:22:24.698Z,22.34
2019-02-06T22:24:54.638Z,22.31
2019-02-06T22:27:23.051Z,22.31
2019-02-06T22:29:52.832Z,22.34
2019-02-06T22:32:24.727Z,22.34
2019-02-06T22:34:54.670Z,22.34
2019-02-06T22:37:23.790Z,22.34
2019-02-06T22:39:54.869Z,22.34
2019-02-06T22:42:24.982Z,22.20
2019-02-06T22:44:57.143Z,22.16
2019-02-06T22:47:27.786Z,22.28
2019-02-06T22:49:58.340Z,22.24
2019-02-06T22:52:28.381Z,22.35
2019-02-06T22:54:59.801Z,22.30
2019-02-06T22:58:41.516Z,22.41
2019-02-06T23:01:33.818Z,22.43
2019-02-06T23:04:03.437Z,22.50
2019-02-06T23:06:33.207Z,22.36
2019-02-06T23:09:05.169Z,22.34
2019-02-06T23:11:35.040Z,22.30
2019-02-06T23:14:16.908Z,22.30
2019-02-06T23:16:37.440Z,22.26
2019-02-06T23:19:08.637Z,22.30
2019-02-06T23:21:38.802Z,22.29
2019-02-06T23:24:08.707Z,22.33
2019-02-06T23:26:37.403Z,22.33
2019-02-06T23:29:07.803Z,22.32
2019-02-06T23:31:37.826Z,22.32
2019-02-06T23:34:07.431Z,22.32
2019-02-06T23:36:36.781Z,22.33
2019-02-06T23:39:14.854Z,22.30
2019-02-06T23:41:43.777Z,22.18
2019-02-06T23:44:13.988Z,22.18
2019-02-06T23:46:41.985Z,22.10
2019-02-06T23:49:13.832Z,22.10
2019-02-06T23:51:42.834Z,22.15
2019-02-06T23:54:12.353Z,22.15
2019-02-06T23:56:41.820Z,22.18
